This is the latest recevied weather packets stored in our database for station/object EA7URS-13. If no packets are shown the sender has not sent any weather packets the latest 10 day(s).
| Time | Temp. | Humidity | Pressure | Rain* | Wind** | Luminosity | Snow |
|---|---|---|---|---|---|---|---|
| 1787851345 | 24.44° C | 48% | 1009.6 hPa | 0 mm | - | 68 W/m² | - |
| 1787851044 | 24.44° C | 48% | 1009.6 hPa | 0 mm | - | 68 W/m² | - |
| 1787850743 | 25° C | 48% | 1009.5 hPa | 0 mm | - | 75 W/m² | - |
| 1787850441 | 25° C | 48% | 1009.5 hPa | 0 mm | - | 75 W/m² | - |
| 1787850140 | 25.56° C | 45% | 1009.5 hPa | 0 mm | - | 108 W/m² | - |
| 1787849839 | 25.56° C | 45% | 1009.5 hPa | 0 mm | - | 108 W/m² | - |
| 1787849538 | 25.56° C | 46% | 1009.2 hPa | 0 mm | - | 130 W/m² | - |
| 1787849237 | 25.56° C | 46% | 1009.2 hPa | 0 mm | - | 130 W/m² | - |
| 1787848936 | 25.56° C | 50% | 1009.4 hPa | 0 mm | - | 215 W/m² | - |
| 1787848634 | 25.56° C | 50% | 1009.4 hPa | 0 mm | - | 215 W/m² | - |
| 1787848333 | 25.56° C | 50% | 1009.4 hPa | 0 mm | - | 177 W/m² | - |
| 1787848032 | 25.56° C | 50% | 1009.4 hPa | 0 mm | - | 177 W/m² | - |
| 1787847731 | 25.56° C | 51% | 1009.7 hPa | 0 mm | - | 183 W/m² | - |
| 1787847430 | 25.56° C | 51% | 1009.7 hPa | 0 mm | - | 183 W/m² | - |
| 1787847129 | 25.56° C | 50% | 1009.4 hPa | 0 mm | - | 188 W/m² | - |
| 1787846828 | 25.56° C | 50% | 1009.4 hPa | 0 mm | - | 188 W/m² | - |
| 1787846525 | 25° C | 53% | 1009.2 hPa | 0 mm | - | 193 W/m² | - |
| 1787846224 | 25° C | 53% | 1009.2 hPa | 0 mm | - | 193 W/m² | - |
| 1787845923 | 25.56° C | 53% | 1009.4 hPa | 0 mm | - | 202 W/m² | - |
| 1787845622 | 25.56° C | 53% | 1009.4 hPa | 0 mm | - | 202 W/m² | - |
| 1787845321 | 25.56° C | 53% | 1009.4 hPa | 0 mm | - | 302 W/m² | - |
| 1787845020 | 25.56° C | 53% | 1009.4 hPa | 0 mm | - | 302 W/m² | - |
| 1787844719 | 25.56° C | 52% | 1009 hPa | 0 mm | - | 214 W/m² | - |
| 1787844417 | 25.56° C | 52% | 1009 hPa | 0 mm | - | 214 W/m² | - |
| 1787844116 | 26.11° C | 51% | 1009.3 hPa | 0 mm | - | 413 W/m² | - |
* Rain latest hour (hover to see other rain measurements)
** Current wind speed in m/s (hover to see current wind gust speed)